createdAt,value
2022-12-03T00:00:10.624Z,-0.72
2022-12-03T00:01:05.282Z,-0.64
2022-12-03T00:02:05.478Z,-0.72
2022-12-03T00:03:05.694Z,-0.48
2022-12-03T00:04:05.786Z,-0.48
2022-12-03T00:05:05.900Z,-0.48
2022-12-03T00:06:06.052Z,-0.32
2022-12-03T00:07:06.194Z,-0.48
2022-12-03T00:08:06.406Z,-0.48
2022-12-03T00:09:06.453Z,-0.64
2022-12-03T00:10:06.602Z,-0.64
2022-12-03T00:11:06.758Z,-0.72
2022-12-03T00:12:06.908Z,-0.72
2022-12-03T00:13:07.056Z,-0.64
2022-12-03T00:14:07.213Z,-0.72
2022-12-03T00:15:07.321Z,-0.64
2022-12-03T00:16:07.492Z,-0.64
2022-12-03T00:17:07.596Z,-0.48
2022-12-03T00:18:07.751Z,-0.48
2022-12-03T00:19:07.911Z,-0.64
2022-12-03T00:20:07.978Z,-0.48
2022-12-03T00:21:08.109Z,-0.48
2022-12-03T00:22:08.270Z,-0.48
2022-12-03T00:23:08.417Z,-0.64
2022-12-03T00:24:08.571Z,-0.64
2022-12-03T00:25:08.729Z,-0.72
2022-12-03T00:26:08.880Z,-0.64
2022-12-03T00:27:09.022Z,-0.64
2022-12-03T00:28:09.178Z,-0.72
2022-12-03T00:29:09.331Z,-0.72
2022-12-03T00:30:09.481Z,-0.64
2022-12-03T00:31:09.698Z,-0.64
2022-12-03T00:32:09.766Z,-0.48
2022-12-03T00:33:09.876Z,-0.32
2022-12-03T00:34:09.977Z,-0.4
2022-12-03T00:35:10.075Z,-0.32
2022-12-03T00:36:10.248Z,-0.4
2022-12-03T00:37:10.402Z,-0.48
2022-12-03T00:38:10.546Z,-0.48
2022-12-03T00:39:10.688Z,-0.48
2022-12-03T00:40:10.852Z,-0.48
2022-12-03T00:41:10.999Z,-0.48
2022-12-03T00:42:11.149Z,-0.48
2022-12-03T00:43:11.310Z,-0.48
2022-12-03T00:44:11.403Z,-0.32
2022-12-03T00:45:11.547Z,-0.48
2022-12-03T00:46:12.175Z,-0.32
2022-12-03T00:47:11.851Z,-0.32
2022-12-03T00:48:11.957Z,-0.32
2022-12-03T00:49:12.123Z,-0.32
2022-12-03T00:50:12.243Z,-0.48
2022-12-03T00:51:12.358Z,-0.48
2022-12-03T00:52:12.448Z,-0.64
2022-12-03T00:53:12.608Z,-0.4
2022-12-03T00:54:12.765Z,-0.48
2022-12-03T00:55:12.875Z,-0.48
2022-12-03T00:56:13.014Z,-0.48
2022-12-03T00:57:13.166Z,-0.48
2022-12-03T00:58:13.320Z,-0.4
2022-12-03T00:59:13.469Z,-0.32
2022-12-03T01:00:13.579Z,-0.32
2022-12-03T01:01:13.739Z,-0.4
2022-12-03T01:02:13.863Z,-0.48
2022-12-03T01:03:13.865Z,-0.48
2022-12-03T01:04:14.030Z,-0.48
2022-12-03T01:05:14.219Z,-0.32
2022-12-03T01:06:14.305Z,-0.4
2022-12-03T01:07:14.426Z,-0.4
2022-12-03T01:08:14.680Z,-0.48
2022-12-03T01:09:14.729Z,-0.4
2022-12-03T01:10:14.879Z,-0.48
2022-12-03T01:11:15.027Z,-0.4
2022-12-03T01:12:15.139Z,-0.48
2022-12-03T01:13:15.274Z,-0.48
2022-12-03T01:14:15.384Z,-0.4
2022-12-03T01:15:15.530Z,-0.32
2022-12-03T01:16:16.260Z,-0.32
2022-12-03T01:17:15.737Z,-0.24
2022-12-03T01:18:15.855Z,-0.24
2022-12-03T01:19:16.156Z,-0.4
2022-12-03T01:20:16.148Z,-0.48
2022-12-03T01:21:16.254Z,-0.4
2022-12-03T01:22:16.397Z,-0.4
2022-12-03T01:23:16.566Z,-0.32
2022-12-03T01:24:16.720Z,-0.4
2022-12-03T01:25:16.860Z,-0.4
2022-12-03T01:26:16.974Z,-0.32
2022-12-03T01:27:17.112Z,-0.4
2022-12-03T01:28:17.269Z,-0.4
2022-12-03T01:29:17.423Z,-0.48
2022-12-03T01:30:17.570Z,-0.4
2022-12-03T01:31:17.804Z,-0.32
2022-12-03T01:32:17.865Z,-0.48
2022-12-03T01:33:17.961Z,-0.48
2022-12-03T01:34:18.127Z,-0.4
2022-12-03T01:35:18.271Z,-0.48
2022-12-03T01:36:18.424Z,-0.48
2022-12-03T01:37:18.573Z,-0.48
2022-12-03T01:38:18.730Z,-0.48
2022-12-03T01:39:18.872Z,-0.48
2022-12-03T01:40:19.041Z,-0.32
2022-12-03T01:41:19.183Z,-0.4
2022-12-03T01:42:19.340Z,-0.48
2022-12-03T01:43:19.502Z,-0.48
2022-12-03T01:44:19.642Z,-0.48
2022-12-03T01:45:19.781Z,-0.24
2022-12-03T01:46:20.111Z,-0.08
2022-12-03T01:47:20.089Z,-0.32
2022-12-03T01:48:20.240Z,-0.48
2022-12-03T01:49:20.413Z,-0.4
2022-12-03T01:50:20.560Z,-0.4
2022-12-03T01:51:20.654Z,-0.4
2022-12-03T01:52:20.804Z,-0.48
2022-12-03T01:53:20.904Z,-0.48
2022-12-03T01:54:21.048Z,-0.48
2022-12-03T01:55:21.247Z,-0.32
2022-12-03T01:56:21.350Z,-0.32
2022-12-03T01:57:21.511Z,-0.4
2022-12-03T01:58:21.662Z,-0.48
2022-12-03T01:59:21.759Z,-0.32
2022-12-03T02:00:21.926Z,-0.48
2022-12-03T02:01:22.102Z,-0.4
2022-12-03T02:02:22.171Z,-0.32
2022-12-03T02:03:22.325Z,-0.32
2022-12-03T02:04:22.530Z,-0.32
2022-12-03T02:05:22.610Z,-0.32
2022-12-03T02:06:22.711Z,-0.32
2022-12-03T02:07:22.869Z,-0.4
2022-12-03T02:08:22.974Z,-0.4
2022-12-03T02:09:23.127Z,-0.32
2022-12-03T02:10:23.276Z,-0.32
2022-12-03T02:11:23.421Z,-0.24
2022-12-03T02:12:23.573Z,-0.08
2022-12-03T02:13:23.692Z,-0.24
2022-12-03T02:14:23.837Z,-0.4
2022-12-03T02:15:23.973Z,-0.32
2022-12-03T02:16:24.223Z,-0.48
2022-12-03T02:17:24.276Z,-0.48
2022-12-03T02:18:24.427Z,-0.4
2022-12-03T02:19:24.591Z,-0.4
2022-12-03T02:20:24.725Z,-0.48
2022-12-03T02:21:24.848Z,-0.32
2022-12-03T02:22:24.989Z,-0.32
2022-12-03T02:23:25.093Z,-0.48
2022-12-03T02:24:25.240Z,-0.4
2022-12-03T02:25:25.401Z,-0.4
2022-12-03T02:26:25.547Z,-0.4
2022-12-03T02:27:25.684Z,-0.48
2022-12-03T02:28:25.848Z,-0.48
2022-12-03T02:29:25.999Z,-0.48
2022-12-03T02:30:26.164Z,-0.4
2022-12-03T02:31:26.300Z,-0.48
2022-12-03T02:32:26.361Z,-0.48
2022-12-03T02:33:26.509Z,-0.4
2022-12-03T02:34:26.663Z,-0.4
2022-12-03T02:35:26.768Z,-0.4
2022-12-03T02:36:26.905Z,-0.4
2022-12-03T02:37:27.071Z,-0.32
2022-12-03T02:38:27.220Z,-0.4
2022-12-03T02:39:27.358Z,-0.4
2022-12-03T02:40:27.527Z,-0.4
2022-12-03T02:41:27.607Z,-0.4
2022-12-03T02:42:27.722Z,-0.32
2022-12-03T02:43:27.877Z,-0.48
2022-12-03T02:44:27.993Z,-0.48
2022-12-03T02:45:28.126Z,-0.64
2022-12-03T02:46:28.297Z,-0.48
2022-12-03T02:47:28.380Z,-0.32
2022-12-03T02:48:28.528Z,-0.4
2022-12-03T02:49:28.670Z,-0.4
2022-12-03T02:50:28.824Z,-0.4
2022-12-03T02:51:28.921Z,-0.4
2022-12-03T02:52:29.021Z,-0.48
2022-12-03T02:53:29.191Z,-0.48
2022-12-03T02:54:29.339Z,-0.48
2022-12-03T02:55:33.428Z,-0.48
2022-12-03T02:56:29.585Z,-0.48
2022-12-03T02:57:29.700Z,-0.48
2022-12-03T02:58:29.806Z,-0.64
2022-12-03T02:59:29.942Z,-0.48
2022-12-03T03:00:30.118Z,-0.4
2022-12-03T03:01:30.230Z,-0.48
2022-12-03T03:02:30.397Z,-0.4
2022-12-03T03:03:30.496Z,-0.32
2022-12-03T03:04:30.659Z,-0.4
2022-12-03T03:05:30.762Z,-0.48
2022-12-03T03:06:30.860Z,-0.32
2022-12-03T03:07:31.032Z,-0.4
2022-12-03T03:08:31.159Z,-0.4
2022-12-03T03:09:31.313Z,-0.32
2022-12-03T03:10:31.454Z,-0.64
2022-12-03T03:11:31.612Z,-0.64
2022-12-03T03:12:34.789Z,-0.64
2022-12-03T03:13:31.850Z,-0.48
2022-12-03T03:14:32.019Z,-0.64
2022-12-03T03:15:32.168Z,-0.4
2022-12-03T03:16:32.281Z,-0.48
2022-12-03T03:17:32.420Z,-0.48
2022-12-03T03:18:32.576Z,-0.4
2022-12-03T03:19:32.677Z,-0.48
2022-12-03T03:20:32.887Z,-0.08
2022-12-03T03:21:32.973Z,-0.48
2022-12-03T03:22:33.073Z,-0.48
2022-12-03T03:23:33.227Z,-0.64
2022-12-03T03:24:33.376Z,-0.72
2022-12-03T03:25:33.535Z,-0.64
2022-12-03T03:26:33.676Z,-0.48
2022-12-03T03:27:33.852Z,-0.72
2022-12-03T03:28:33.999Z,-0.48
2022-12-03T03:29:34.139Z,-0.4
2022-12-03T03:30:34.273Z,-0.4
2022-12-03T03:31:34.519Z,-0.48
2022-12-03T03:32:34.540Z,-0.64
2022-12-03T03:33:34.699Z,-0.48
2022-12-03T03:34:34.847Z,-0.48
2022-12-03T03:35:34.994Z,-0.48
2022-12-03T03:36:35.145Z,-0.48
2022-12-03T03:37:35.305Z,-0.48
2022-12-03T03:38:35.455Z,-0.64
2022-12-03T03:39:35.551Z,-0.48
2022-12-03T03:40:35.655Z,-0.72
2022-12-03T03:41:35.800Z,-0.48
2022-12-03T03:42:35.956Z,-0.48
2022-12-03T03:43:36.115Z,-0.48
2022-12-03T03:44:36.257Z,-0.48
2022-12-03T03:45:36.454Z,-0.32
2022-12-03T03:46:36.515Z,-0.48
2022-12-03T03:47:36.664Z,-0.48
2022-12-03T03:48:36.815Z,-0.32
2022-12-03T03:49:36.927Z,-0.32
2022-12-03T03:50:37.005Z,-0.48
2022-12-03T03:51:37.163Z,-0.48
2022-12-03T03:52:37.325Z,-0.48
2022-12-03T03:53:37.423Z,-0.64
2022-12-03T03:54:37.573Z,-0.72
2022-12-03T03:55:37.731Z,-0.72
2022-12-03T03:56:37.828Z,-0.72
2022-12-03T03:57:37.943Z,-0.64
2022-12-03T03:58:38.031Z,-0.64
2022-12-03T03:59:38.173Z,-0.64
2022-12-03T04:00:38.320Z,-0.32
2022-12-03T04:01:38.572Z,-0.48
2022-12-03T04:02:38.619Z,-0.32
2022-12-03T04:03:38.847Z,-0.48
2022-12-03T04:04:38.949Z,-0.64
2022-12-03T04:05:39.036Z,-0.64
2022-12-03T04:06:39.215Z,-0.64
2022-12-03T04:07:39.409Z,-0.4
2022-12-03T04:08:39.545Z,-0.4
2022-12-03T04:09:39.706Z,-0.64
2022-12-03T04:10:39.844Z,-0.48
2022-12-03T04:11:39.995Z,-0.72
2022-12-03T04:12:40.145Z,-0.64
2022-12-03T04:13:40.305Z,-0.4
2022-12-03T04:14:40.449Z,-0.64
2022-12-03T04:15:40.595Z,-0.4
2022-12-03T04:16:40.747Z,-0.4
2022-12-03T04:17:40.843Z,-0.48
2022-12-03T04:18:41.005Z,-0.48
2022-12-03T04:19:41.165Z,-0.64
2022-12-03T04:20:41.311Z,-0.48
2022-12-03T04:21:41.462Z,-0.64
2022-12-03T04:22:41.609Z,-0.64
2022-12-03T04:23:41.782Z,-0.48
2022-12-03T04:24:41.912Z,-0.72
2022-12-03T04:25:42.068Z,-0.64
2022-12-03T04:26:42.217Z,-0.64
2022-12-03T04:27:42.361Z,-0.64
2022-12-03T04:28:42.472Z,-0.48
2022-12-03T04:29:42.618Z,-0.64
2022-12-03T04:30:42.787Z,-0.48
2022-12-03T04:31:42.863Z,-0.32
2022-12-03T04:32:43.036Z,-0.48
2022-12-03T04:33:43.175Z,-0.72
2022-12-03T04:34:43.341Z,-0.72
2022-12-03T04:35:43.580Z,-0.64
2022-12-03T04:36:43.671Z,-0.72
2022-12-03T04:37:43.879Z,-0.64
2022-12-03T04:38:43.988Z,-0.64
2022-12-03T04:39:44.141Z,-0.48
2022-12-03T04:40:44.280Z,-0.48
2022-12-03T04:41:44.440Z,-0.4
2022-12-03T04:42:44.586Z,-0.48
2022-12-03T04:43:44.699Z,-0.48
2022-12-03T04:44:44.799Z,-0.64
2022-12-03T04:45:44.939Z,-0.48
2022-12-03T04:46:45.036Z,-0.72
2022-12-03T04:47:45.189Z,-0.64
2022-12-03T04:48:45.346Z,-0.72
2022-12-03T04:49:45.508Z,-0.48
2022-12-03T04:50:45.609Z,-0.48
2022-12-03T04:51:45.756Z,-0.64
2022-12-03T04:52:45.899Z,-0.64
2022-12-03T04:53:46.431Z,-0.72
2022-12-03T04:54:46.168Z,-0.48
2022-12-03T04:55:46.312Z,-0.48
2022-12-03T04:56:46.473Z,-0.4
2022-12-03T04:57:46.599Z,-0.24
2022-12-03T04:58:46.760Z,-0.32
2022-12-03T04:59:46.970Z,-0.48
2022-12-03T05:00:47.106Z,-0.64
2022-12-03T05:01:47.348Z,-0.64
2022-12-03T05:02:47.452Z,-0.64
2022-12-03T05:03:47.571Z,-0.64
2022-12-03T05:04:47.717Z,-0.64
2022-12-03T05:05:47.875Z,-0.48
2022-12-03T05:06:48.023Z,-0.64
2022-12-03T05:07:48.219Z,-0.32
2022-12-03T05:08:48.331Z,-0.4
2022-12-03T05:09:48.482Z,-0.32
2022-12-03T05:10:48.636Z,-0.32
2022-12-03T05:11:48.787Z,-0.4
2022-12-03T05:12:48.921Z,-0.08
2022-12-03T05:13:49.085Z,-0.32
2022-12-03T05:14:49.237Z,-0.48
2022-12-03T05:15:49.371Z,-0.48
2022-12-03T05:16:49.530Z,-0.48
2022-12-03T05:17:49.597Z,-0.48
2022-12-03T05:18:49.749Z,-0.48
2022-12-03T05:19:49.889Z,-0.4
2022-12-03T05:20:53.381Z,-0.32
2022-12-03T05:21:50.206Z,-0.48
2022-12-03T05:22:50.346Z,-0.48
2022-12-03T05:23:50.496Z,-0.48
2022-12-03T05:24:50.743Z,-0.4
2022-12-03T05:25:50.760Z,-0.4
2022-12-03T05:26:50.913Z,-0.32
2022-12-03T05:27:51.062Z,-0.32
2022-12-03T05:28:51.204Z,-0.48
2022-12-03T05:29:51.361Z,-0.4
2022-12-03T05:30:51.512Z,-0.48
2022-12-03T05:31:51.666Z,-0.64
2022-12-03T05:32:51.806Z,-0.48
2022-12-03T05:33:51.971Z,-0.48
2022-12-03T05:34:52.549Z,-0.48
2022-12-03T05:35:52.265Z,-0.48
2022-12-03T05:36:52.417Z,-0.48
2022-12-03T05:37:52.572Z,-0.48
2022-12-03T05:38:52.728Z,-0.32
2022-12-03T05:39:52.864Z,-0.4
2022-12-03T05:40:53.032Z,-0.4
2022-12-03T05:41:53.184Z,-0.32
2022-12-03T05:42:53.325Z,-0.24
2022-12-03T05:43:53.496Z,-0.4
2022-12-03T05:44:53.715Z,-0.4
2022-12-03T05:45:53.810Z,-0.48
2022-12-03T05:46:53.885Z,-0.48
2022-12-03T05:47:54.032Z,-0.48
2022-12-03T05:48:54.187Z,-0.64
2022-12-03T05:49:54.327Z,-0.64
2022-12-03T05:50:54.484Z,-0.64
2022-12-03T05:51:58.363Z,-0.64
2022-12-03T05:52:54.744Z,-0.48
2022-12-03T05:53:54.886Z,-0.48
2022-12-03T05:54:55.249Z,-0.4
2022-12-03T05:55:55.201Z,-0.24
2022-12-03T05:56:55.343Z,-0.24
2022-12-03T05:57:55.496Z,-0.4
2022-12-03T05:58:55.654Z,-0.4
2022-12-03T05:59:55.810Z,-0.48
2022-12-03T06:00:55.937Z,-0.48
2022-12-03T06:01:56.104Z,-0.48
2022-12-03T06:02:56.388Z,-0.48
2022-12-03T06:03:56.473Z,-0.64
2022-12-03T06:04:56.634Z,-0.64
2022-12-03T06:05:56.713Z,-0.48
2022-12-03T06:06:56.855Z,-0.48
2022-12-03T06:07:57.049Z,-0.48
2022-12-03T06:08:57.158Z,-0.4
2022-12-03T06:09:57.323Z,-0.4
2022-12-03T06:10:57.468Z,-0.4
2022-12-03T06:11:57.612Z,-0.48
2022-12-03T06:12:57.774Z,-0.48
2022-12-03T06:13:57.928Z,-0.64
2022-12-03T06:14:58.080Z,-0.48
2022-12-03T06:15:58.242Z,-0.48
2022-12-03T06:16:58.375Z,-0.48
2022-12-03T06:17:58.482Z,-0.64
2022-12-03T06:18:58.626Z,-0.48
2022-12-03T06:19:58.786Z,-0.64
2022-12-03T06:20:58.925Z,-0.64
2022-12-03T06:21:59.028Z,-0.72
2022-12-03T06:22:59.181Z,-0.72
2022-12-03T06:23:59.335Z,-0.48
2022-12-03T06:25:03.494Z,-0.48
2022-12-03T06:25:59.634Z,-0.48
2022-12-03T06:26:59.792Z,-0.72
2022-12-03T06:27:59.940Z,-0.64
2022-12-03T06:29:00.043Z,-0.72
2022-12-03T06:30:00.222Z,-0.72
2022-12-03T06:31:00.361Z,-0.72
2022-12-03T06:32:00.436Z,-0.72
2022-12-03T06:33:00.536Z,-0.72
2022-12-03T06:34:00.705Z,-0.72
2022-12-03T06:35:00.854Z,-0.64
2022-12-03T06:36:01.000Z,-0.8
2022-12-03T06:37:01.108Z,-0.72
2022-12-03T06:38:01.242Z,-0.8
2022-12-03T06:39:01.338Z,-0.72
2022-12-03T06:40:01.508Z,-0.48
2022-12-03T06:41:01.652Z,-0.48
2022-12-03T06:42:01.753Z,-0.88
2022-12-03T06:43:01.910Z,-0.72
2022-12-03T06:44:02.017Z,-0.8
2022-12-03T06:45:02.159Z,-0.64
2022-12-03T06:46:02.352Z,-0.64
2022-12-03T06:47:02.474Z,-0.48
2022-12-03T06:48:02.571Z,-0.24
2022-12-03T06:49:02.720Z,-0.08
2022-12-03T06:50:02.882Z,-0.4
2022-12-03T06:51:03.014Z,-0.4
2022-12-03T06:52:03.110Z,-0.64
2022-12-03T06:53:03.228Z,-0.48
2022-12-03T06:54:03.327Z,-0.4
2022-12-03T06:55:03.481Z,-0.64
2022-12-03T06:56:03.640Z,-0.48
2022-12-03T06:57:03.782Z,-0.64
2022-12-03T06:58:03.924Z,-0.4
2022-12-03T06:59:04.086Z,-0.64
2022-12-03T07:00:04.238Z,-0.48
2022-12-03T07:01:04.371Z,-0.64
2022-12-03T07:02:04.571Z,-0.48
2022-12-03T07:03:04.751Z,-0.72
2022-12-03T07:04:04.847Z,-0.64
2022-12-03T07:05:04.990Z,-0.8
2022-12-03T07:06:05.151Z,-0.48
2022-12-03T07:07:05.302Z,-0.48
2022-12-03T07:08:05.475Z,-0.64
2022-12-03T07:09:05.600Z,-0.72
2022-12-03T07:10:05.701Z,-0.8
2022-12-03T07:11:05.833Z,-0.8
2022-12-03T07:12:05.994Z,-0.72
2022-12-03T07:13:06.135Z,-0.8
2022-12-03T07:14:06.250Z,-0.88
2022-12-03T07:15:06.339Z,-0.88
2022-12-03T07:16:06.531Z,-0.88
2022-12-03T07:17:06.630Z,-0.88
2022-12-03T07:18:06.753Z,-0.72
2022-12-03T07:19:06.911Z,-0.72
2022-12-03T07:20:07.053Z,-0.64
2022-12-03T07:21:07.228Z,-0.72
2022-12-03T07:22:07.310Z,-0.4
2022-12-03T07:23:07.469Z,-0.64
2022-12-03T07:24:07.624Z,-0.72
2022-12-03T07:25:07.782Z,-0.8
2022-12-03T07:26:07.921Z,-0.48
2022-12-03T07:27:08.074Z,-0.48
2022-12-03T07:28:08.224Z,-0.48
2022-12-03T07:29:08.381Z,-0.48
2022-12-03T07:30:08.524Z,-0.48
2022-12-03T07:31:08.719Z,-0.48
2022-12-03T07:32:08.780Z,-0.64
2022-12-03T07:33:08.940Z,-0.48
2022-12-03T07:34:09.079Z,-0.48
2022-12-03T07:35:09.237Z,-0.32
2022-12-03T07:36:09.389Z,-0.32
2022-12-03T07:37:09.494Z,-0.08
2022-12-03T07:38:09.645Z,-0.24
2022-12-03T07:39:09.781Z,-0.24
2022-12-03T07:40:09.937Z,-0.32
2022-12-03T07:41:10.088Z,-0.32
2022-12-03T07:42:10.240Z,-0.4
2022-12-03T07:43:10.378Z,-0.32
2022-12-03T07:44:14.139Z,-0.32
2022-12-03T07:45:10.682Z,-0.4
2022-12-03T07:46:10.857Z,-0.24
2022-12-03T07:47:11.058Z,-0.24
2022-12-03T07:48:11.071Z,-0.08
2022-12-03T07:49:11.202Z,-0.08
2022-12-03T07:50:11.357Z,0.08
2022-12-03T07:51:15.117Z,-0.08
2022-12-03T07:52:11.654Z,0.08
2022-12-03T07:53:11.816Z,0
2022-12-03T07:54:11.971Z,0.08
2022-12-03T07:55:12.118Z,0.08
2022-12-03T07:56:12.267Z,0.08
2022-12-03T07:57:12.415Z,-0.08
2022-12-03T07:58:12.532Z,0.08
2022-12-03T07:59:12.677Z,0.08
2022-12-03T08:00:12.776Z,0.24
2022-12-03T08:01:13.042Z,0.32
2022-12-03T08:02:15.726Z,0.48
2022-12-03T08:03:13.179Z,0.4
2022-12-03T08:04:13.328Z,0.64
2022-12-03T08:05:13.485Z,0.48
2022-12-03T08:06:13.623Z,0.64
2022-12-03T08:07:13.780Z,0.4
2022-12-03T08:08:14.001Z,0.24
2022-12-03T08:09:16.167Z,0.24
2022-12-03T08:10:14.155Z,0.32
2022-12-03T08:11:14.287Z,0.4
2022-12-03T08:12:14.435Z,0.32
2022-12-03T08:13:14.543Z,0.32
2022-12-03T08:14:14.678Z,0.48
2022-12-03T08:15:14.850Z,0.4
2022-12-03T08:16:15.011Z,0.32
2022-12-03T08:17:15.099Z,0.64
2022-12-03T08:18:15.248Z,0.64
2022-12-03T08:19:15.394Z,0.64
2022-12-03T08:20:15.553Z,0.64
2022-12-03T08:21:15.698Z,0.64
2022-12-03T08:22:15.851Z,0.48
2022-12-03T08:23:16.004Z,0.48
2022-12-03T08:24:16.152Z,0.48
2022-12-03T08:25:16.304Z,0.48
2022-12-03T08:26:16.406Z,0.72
2022-12-03T08:27:16.562Z,0.64
2022-12-03T08:28:16.709Z,0.64
2022-12-03T08:29:16.869Z,0.48
2022-12-03T08:30:17.373Z,0.64
2022-12-03T08:31:17.575Z,0.64
2022-12-03T08:32:17.748Z,0.72
2022-12-03T08:33:17.806Z,0.64
2022-12-03T08:34:17.610Z,0.64
2022-12-03T08:35:17.709Z,0.72
2022-12-03T08:36:17.859Z,0.64
2022-12-03T08:37:18.014Z,0.8
2022-12-03T08:38:18.514Z,0.48
2022-12-03T08:39:18.673Z,0.64
2022-12-03T08:40:18.817Z,0.48
2022-12-03T08:41:19.014Z,0.4
2022-12-03T08:42:18.724Z,0.48
2022-12-03T08:43:18.881Z,0.64
2022-12-03T08:44:19.058Z,0.64
2022-12-03T08:45:19.194Z,0.72
2022-12-03T08:46:19.413Z,0.72
2022-12-03T08:47:19.437Z,0.72
2022-12-03T08:48:19.524Z,0.64
2022-12-03T08:49:19.691Z,0.72
2022-12-03T08:50:19.803Z,0.64
2022-12-03T08:51:19.951Z,0.48
2022-12-03T08:52:20.089Z,0.64
2022-12-03T08:53:20.238Z,0.64
2022-12-03T08:54:20.399Z,0.64
2022-12-03T08:55:20.553Z,0.48
2022-12-03T08:56:20.702Z,0.48
2022-12-03T08:57:20.850Z,0.4
2022-12-03T08:58:20.951Z,0.4
2022-12-03T08:59:21.111Z,0.48
2022-12-03T09:00:21.264Z,0.4
2022-12-03T09:01:21.505Z,0.48
2022-12-03T09:02:21.501Z,0.72
2022-12-03T09:03:21.660Z,0.48
2022-12-03T09:04:21.895Z,0.64
2022-12-03T09:05:21.911Z,0.64
2022-12-03T09:06:22.078Z,0.48
2022-12-03T09:07:22.221Z,0.64
2022-12-03T09:08:22.373Z,0.88
2022-12-03T09:09:22.516Z,0.88
2022-12-03T09:10:22.665Z,1.12
2022-12-03T09:11:22.772Z,0.72
2022-12-03T09:12:22.877Z,0.64
2022-12-03T09:13:22.969Z,0.48
2022-12-03T09:14:23.124Z,0.48
2022-12-03T09:15:23.255Z,0.64
2022-12-03T09:16:23.385Z,0.64
2022-12-03T09:17:23.521Z,0.72
2022-12-03T09:18:23.700Z,0.64
2022-12-03T09:19:23.833Z,0.88
2022-12-03T09:20:23.952Z,0.72
2022-12-03T09:21:24.073Z,0.48
2022-12-03T09:22:24.238Z,0.48
2022-12-03T09:23:24.339Z,0.48
2022-12-03T09:24:24.499Z,0.48
2022-12-03T09:25:24.630Z,0.48
2022-12-03T09:26:24.801Z,0.48
2022-12-03T09:27:24.963Z,0.48
2022-12-03T09:28:25.100Z,0.48
2022-12-03T09:29:25.245Z,0.48
2022-12-03T09:30:25.397Z,0.4
2022-12-03T09:31:25.602Z,0.48
2022-12-03T09:32:25.750Z,0.4
2022-12-03T09:33:25.802Z,0.4
2022-12-03T09:34:25.959Z,0.48
2022-12-03T09:35:26.072Z,0.48
2022-12-03T09:36:26.198Z,0.48
2022-12-03T09:37:26.357Z,0.72
2022-12-03T09:38:26.512Z,0.72
2022-12-03T09:39:26.656Z,0.64
2022-12-03T09:40:26.814Z,0.64
2022-12-03T09:41:26.959Z,0.4
2022-12-03T09:42:27.063Z,0.32
2022-12-03T09:43:43.315Z,0.4
2022-12-03T09:44:27.422Z,0.4
2022-12-03T09:45:27.562Z,0.4
2022-12-03T09:46:27.747Z,0.4
2022-12-03T09:47:27.866Z,0.72
2022-12-03T09:48:28.019Z,0.72
2022-12-03T09:49:28.181Z,0.72
2022-12-03T09:50:28.317Z,0.64
2022-12-03T09:51:28.470Z,0.72
2022-12-03T09:52:28.637Z,0.64
2022-12-03T09:53:28.786Z,0.64
2022-12-03T09:54:28.934Z,0.64
2022-12-03T09:55:29.068Z,0.48
2022-12-03T09:56:29.247Z,0.64
2022-12-03T09:57:29.392Z,0.64
2022-12-03T09:58:34.426Z,0.64
2022-12-03T09:59:29.699Z,0.64
2022-12-03T10:00:29.838Z,0.72
2022-12-03T10:01:30.417Z,0.64
2022-12-03T10:02:30.131Z,0.72
2022-12-03T10:03:30.272Z,0.88
2022-12-03T10:04:30.530Z,0.72
2022-12-03T10:05:30.551Z,0.64
2022-12-03T10:06:30.686Z,0.72
2022-12-03T10:07:30.907Z,0.64
2022-12-03T10:08:32.256Z,0.72
2022-12-03T10:09:31.153Z,0.72
2022-12-03T10:10:31.307Z,0.64
2022-12-03T10:11:31.398Z,0.72
2022-12-03T10:12:31.553Z,0.72
2022-12-03T10:13:31.715Z,0.72
2022-12-03T10:14:31.851Z,0.72
2022-12-03T10:15:31.962Z,0.8
2022-12-03T10:16:32.116Z,0.8
2022-12-03T10:17:32.265Z,0.72
2022-12-03T10:18:35.658Z,1.04
2022-12-03T10:19:32.566Z,1.04
2022-12-03T10:20:32.713Z,1.2
2022-12-03T10:21:32.874Z,0.88
2022-12-03T10:22:32.982Z,0.88
2022-12-03T10:23:33.120Z,0.8
2022-12-03T10:24:33.273Z,0.8
2022-12-03T10:25:33.415Z,0.88
2022-12-03T10:26:33.626Z,1.04
2022-12-03T10:27:33.668Z,0.88
2022-12-03T10:28:33.767Z,1.04
2022-12-03T10:29:34.891Z,0.88
2022-12-03T10:30:34.173Z,1.12
2022-12-03T10:31:34.171Z,1.04
2022-12-03T10:32:34.345Z,1.12
2022-12-03T10:33:34.451Z,1.12
2022-12-03T10:34:34.590Z,1.12
2022-12-03T10:35:34.696Z,1.04
2022-12-03T10:36:34.856Z,1.04
2022-12-03T10:37:34.995Z,0.88
2022-12-03T10:38:35.144Z,1.12
2022-12-03T10:39:35.297Z,0.88
2022-12-03T10:40:35.456Z,1.04
2022-12-03T10:41:35.599Z,0.88
2022-12-03T10:42:35.756Z,1.2
2022-12-03T10:43:35.904Z,1.2
2022-12-03T10:44:36.055Z,1.2
2022-12-03T10:45:36.139Z,1.12
2022-12-03T10:46:36.461Z,1.2
2022-12-03T10:47:36.606Z,1.44
2022-12-03T10:48:36.611Z,1.28
2022-12-03T10:49:36.773Z,1.28
2022-12-03T10:50:36.897Z,1.12
2022-12-03T10:51:37.065Z,1.04
2022-12-03T10:52:37.216Z,1.2
2022-12-03T10:53:37.368Z,1.28
2022-12-03T10:54:37.523Z,1.04
2022-12-03T10:55:37.666Z,0.88
2022-12-03T10:56:37.816Z,1.04
2022-12-03T10:57:41.152Z,1.04
2022-12-03T10:58:38.121Z,1.12
2022-12-03T10:59:38.268Z,1.04
2022-12-03T11:00:38.424Z,1.04
2022-12-03T11:01:39.236Z,1.04
2022-12-03T11:02:38.720Z,1.04
2022-12-03T11:03:38.961Z,0.8
2022-12-03T11:04:39.012Z,0.8
2022-12-03T11:05:39.577Z,0.88
2022-12-03T11:06:39.269Z,0.88
2022-12-03T11:07:39.519Z,0.8
2022-12-03T11:08:39.579Z,0.8
2022-12-03T11:09:39.727Z,0.8
2022-12-03T11:10:39.831Z,0.8
2022-12-03T11:11:39.951Z,0.8
2022-12-03T11:12:40.082Z,0.88
2022-12-03T11:13:40.235Z,0.88
2022-12-03T11:14:40.393Z,1.04
2022-12-03T11:15:40.579Z,0.88
2022-12-03T11:16:40.654Z,1.04
2022-12-03T11:17:40.806Z,1.12
2022-12-03T11:18:40.950Z,1.04
2022-12-03T11:19:41.104Z,1.04
2022-12-03T11:20:41.205Z,0.8
2022-12-03T11:21:41.360Z,1.04
2022-12-03T11:22:41.510Z,1.04
2022-12-03T11:23:41.669Z,0.88
2022-12-03T11:24:41.826Z,0.88
2022-12-03T11:25:41.961Z,1.04
2022-12-03T11:26:42.062Z,1.12
2022-12-03T11:27:42.214Z,1.12
2022-12-03T11:28:42.313Z,1.2
2022-12-03T11:29:42.469Z,1.2
2022-12-03T11:30:42.643Z,1.2
2022-12-03T11:31:42.832Z,1.44
2022-12-03T11:32:42.817Z,1.12
2022-12-03T11:33:43.004Z,1.12
2022-12-03T11:34:43.112Z,1.12
2022-12-03T11:35:43.274Z,1.04
2022-12-03T11:37:00.977Z,1.2
2022-12-03T11:37:43.518Z,1.04
2022-12-03T11:38:46.166Z,1.04
2022-12-03T11:39:43.839Z,1.12
2022-12-03T11:40:43.988Z,1.04
2022-12-03T11:41:44.196Z,1.04
2022-12-03T11:42:44.236Z,0.8
2022-12-03T11:43:44.388Z,0.88
2022-12-03T11:44:44.541Z,1.04
2022-12-03T11:45:44.672Z,1.12
2022-12-03T11:46:44.885Z,1.04
2022-12-03T11:47:44.994Z,1.04
2022-12-03T11:48:45.139Z,0.88
2022-12-03T11:49:45.290Z,0.88
2022-12-03T11:50:45.399Z,0.88
2022-12-03T11:51:45.549Z,0.88
2022-12-03T11:52:45.696Z,1.04
2022-12-03T11:53:45.845Z,1.04
2022-12-03T11:54:45.955Z,1.04
2022-12-03T11:55:46.104Z,1.12
2022-12-03T11:56:46.256Z,1.2
2022-12-03T11:57:46.414Z,1.12
2022-12-03T11:58:46.547Z,1.04
2022-12-03T11:59:46.706Z,1.04
2022-12-03T12:00:46.849Z,0.88
2022-12-03T12:01:46.957Z,0.8
2022-12-03T12:02:47.168Z,0.88
2022-12-03T12:03:47.425Z,0.72
2022-12-03T12:04:47.366Z,0.72
2022-12-03T12:05:47.513Z,0.8
2022-12-03T12:06:53.110Z,0.88
2022-12-03T12:07:47.903Z,0.88
2022-12-03T12:08:47.877Z,1.04
2022-12-03T12:09:48.037Z,1.12
2022-12-03T12:10:48.172Z,1.04
2022-12-03T12:11:48.327Z,0.88
2022-12-03T12:12:54.512Z,0.88
2022-12-03T12:13:48.625Z,1.28
2022-12-03T12:14:48.801Z,1.12
2022-12-03T12:15:48.938Z,0.88
2022-12-03T12:16:49.105Z,1.04
2022-12-03T12:17:49.178Z,1.12
2022-12-03T12:18:53.789Z,1.04
2022-12-03T12:19:54.151Z,0.88
2022-12-03T12:20:49.623Z,1.04
2022-12-03T12:21:49.777Z,0.88
2022-12-03T12:22:49.874Z,0.88
2022-12-03T12:23:50.046Z,0.88
2022-12-03T12:24:50.188Z,0.88
2022-12-03T12:25:54.077Z,1.04
2022-12-03T12:26:50.435Z,1.12
2022-12-03T12:27:50.531Z,1.12
2022-12-03T12:28:50.636Z,1.12
2022-12-03T12:29:51.519Z,1.12
2022-12-03T12:30:50.939Z,1.12
2022-12-03T12:31:54.091Z,1.2
2022-12-03T12:32:51.636Z,1.2
2022-12-03T12:33:51.694Z,1.28
2022-12-03T12:34:51.837Z,1.04
2022-12-03T12:35:52.046Z,1.12
2022-12-03T12:36:52.131Z,1.28
2022-12-03T12:37:58.442Z,1.12
2022-12-03T12:38:52.119Z,1.28
2022-12-03T12:39:52.769Z,1.2
2022-12-03T12:40:52.402Z,1.2
2022-12-03T12:41:52.541Z,1.28
2022-12-03T12:42:52.663Z,1.2
2022-12-03T12:43:52.826Z,1.44
2022-12-03T12:44:52.976Z,1.2
2022-12-03T12:45:53.105Z,1.28
2022-12-03T12:46:53.231Z,1.2
2022-12-03T12:47:53.394Z,1.2
2022-12-03T12:48:56.586Z,1.2
2022-12-03T12:49:53.987Z,1.04
2022-12-03T12:50:53.787Z,1.12
2022-12-03T12:51:53.934Z,1.28
2022-12-03T12:52:54.078Z,1.44
2022-12-03T12:53:54.234Z,1.44
2022-12-03T12:54:54.394Z,1.44
2022-12-03T12:55:54.535Z,1.2
2022-12-03T12:56:54.693Z,1.12
2022-12-03T12:57:54.848Z,1.44
2022-12-03T12:58:54.992Z,1.28
2022-12-03T12:59:55.281Z,1.2
2022-12-03T13:00:55.355Z,1.2
2022-12-03T13:01:55.502Z,1.12
2022-12-03T13:02:55.714Z,1.12
2022-12-03T13:03:55.754Z,1.12
2022-12-03T13:04:55.892Z,1.2
2022-12-03T13:05:56.055Z,1.28
2022-12-03T13:06:56.151Z,1.28
2022-12-03T13:07:56.315Z,1.52
2022-12-03T13:08:56.771Z,1.68